Latest Weather Observations for Redcliffe

IDQ60801

Issued at 7:52 pm EST Sunday 29 March 2020 (issued every 10 minutes, with the page automatically refreshed every 10 minutes)

About weather observations | Map of weather stations | Latest weather observations for QLD | Other Formats
Station Details ID: 040958 Name: REDCLIFFE Lat: -27.22 Lon: 153.09 Height: 12.6 m
Data from the previous 72 hours. | See also: Recent months at Redcliffe
Date/Time
EST
Temp
°C
App
Temp
°C
Dew
Point
°C
Rel
Hum
%
Delta-T
°C
Wind Press
QNH
hPa
Press
MSL
hPa
Rain since
9am
mm
Dir  Spd
km/h
Gust
km/h
Spd
kts
Gust
kts
29/07:30pm 23.6 24.5 20.1 81 2.3 E 15 17 8 9 1018.1 1018.0 0.2
29/07:00pm 23.7 24.1 19.8 79 2.5 E 17 20 9 11 1018.0 1017.9 0.2
29/06:30pm 23.7 24.1 19.8 79 2.5 E 17 19 9 10 1017.6 1017.5 0.2
29/06:00pm 23.8 24.1 19.7 78 2.6 E 17 20 9 11 1017.3 1017.2 0.2
29/05:30pm 24.2 24.8 19.5 75 3.0 E 15 19 8 10 1017.1 1017.0 0.2
29/05:00pm 24.6 24.8 19.4 73 3.3 E 17 19 9 10 1016.7 1016.6 0.2
29/04:30pm 24.7 24.8 20.0 75 3.0 E 19 20 10 11 1016.5 1016.4 0.2
29/04:00pm 24.9 24.8 19.9 74 3.2 E 20 24 11 13 1016.3 1016.2 0.2
29/03:30pm 25.2 25.1 19.6 71 3.6 E 19 20 10 11 1016.4 1016.3 0.2
29/03:00pm 25.2 25.2 18.9 68 4.0 ESE 17 19 9 10 1016.4 1016.3 0.2
29/02:30pm 25.3 25.0 19.2 69 3.9 ESE 19 22 10 12 1016.4 1016.3 0.2
29/02:00pm 25.4 25.9 19.3 69 3.9 ESE 15 19 8 10 1016.7 1016.6 0.2
29/01:30pm 25.7 26.5 19.8 70 3.8 SE 15 19 8 10 1017.0 1016.9 0.2
29/01:00pm 25.7 26.5 19.8 70 3.8 SE 15 17 8 9 1017.3 1017.2 0.2
29/12:30pm 25.6 26.4 19.0 67 4.2 SE 13 15 7 8 1017.6 1017.5 0.2
29/12:00pm 25.3 25.9 18.5 66 4.3 SE 13 15 7 8 1018.1 1018.0 0.2
29/11:30am 24.7 25.2 18.4 68 4.0 SSE 13 17 7 9 1018.5 1018.4 0.2
29/11:00am 24.9 25.5 19.5 72 3.5 SSE 15 19 8 10 1018.8 1018.7 0.2
29/10:30am 24.4 25.2 19.9 76 2.9 SSE 15 19 8 10 1019.1 1019.0 0.2
29/10:00am 24.4 25.0 20.3 78 2.7 SSE 17 19 9 10 1019.0 1018.9 0.0
29/09:30am 24.0 24.0 20.9 83 2.0 SE 22 28 12 15 1019.3 1019.2 0.0
29/09:00am 23.9 23.1 20.8 83 2.0 SSE 26 30 14 16 1019.5 1019.4 13.4
29/08:30am 23.5 23.8 20.8 85 1.8 S 20 24 11 13 1019.3 1019.2 13.4
29/08:00am 22.2 22.1 19.9 87 1.5 S 20 26 11 14 1019.2 1019.1 13.4
29/07:30am 21.1 21.9 20.6 97 0.3 S 17 19 9 10 1019.1 1019.0 13.4
29/07:00am 20.1 20.9 19.8 98 0.2 S 15 19 8 10 1018.8 1018.7 13.4
29/06:30am 20.1 20.2 19.9 99 0.1 S 19 26 10 14 1018.2 1018.1 13.4
29/06:00am 20.0 20.8 19.8 99 0.1 SSW 15 20 8 11 1017.9 1017.8 13.4
29/05:30am 19.6 20.2 19.4 99 0.1 SSW 15 22 8 12 1017.6 1017.5 13.4
29/05:00am 19.7 21.5 19.5 99 0.1 WSW 9 11 5 6 1017.3 1017.2 13.4
29/04:30am 19.7 21.1 19.5 99 0.1 SW 11 15 6 8 1017.2 1017.1 13.4
29/04:00am 19.8 21.6 19.6 99 0.1 W 9 13 5 7 1017.3 1017.2 13.2
29/03:30am 19.7 20.7 19.4 98 0.2 SW 13 17 7 9 1017.3 1017.2 13.2
29/03:00am 20.1 21.3 19.8 98 0.2 SW 13 17 7 9 1017.2 1017.1 13.2
29/02:30am 20.9 22.4 20.6 98 0.2 SSW 13 17 7 9 1017.4 1017.3 13.2
29/02:00am 20.9 22.0 20.4 97 0.3 SSW 15 19 8 10 1017.5 1017.4 12.0
29/01:30am 21.6 22.5 20.9 96 0.5 SSE 17 19 9 10 1017.7 1017.6 12.0
29/01:00am 21.8 21.8 21.0 95 0.5 SE 22 26 12 14 1018.0 1017.9 12.0
29/12:30am 22.3 22.4 21.1 93 0.8 ESE 22 28 12 15 1018.2 1018.1 3.0
29/12:00am 21.3 21.7 19.8 91 1.0 SE 17 20 9 11 1018.4 1018.3 0.0
 
Date/Time
EST
Temp
°C
App
Temp
°C
Dew
Point
°C
Rel
Hum
%
Delta-T
°C
Wind Press
QNH
hPa
Press
MSL
hPa
Rain since
9am
mm
Dir  Spd
km/h
Gust
km/h
Spd
kts
Gust
kts
28/11:30pm 21.8 23.5 20.1 90 1.1 ESE 11 13 6 7 1018.5 1018.4 0.0
28/11:00pm 21.8 21.3 19.9 89 1.2 ESE 22 26 12 14 1018.7 1018.6 0.0
28/10:30pm 22.4 19.6 20.3 88 1.4 ESE 35 41 19 22 1018.9 1018.8 0.0
28/10:00pm 23.3 23.4 20.4 84 1.9 SE 20 26 11 14 1019.3 1019.2 0.0
28/09:30pm 23.1 23.2 19.1 78 2.5 ESE 17 20 9 11 1019.4 1019.3 0.0
28/09:00pm 22.9 23.7 19.1 79 2.4 ESE 13 17 7 9 1019.2 1019.1 0.0
28/08:30pm 23.1 24.0 20.1 83 1.9 ESE 15 17 8 9 1018.9 1018.8 0.0
28/08:00pm 22.7 23.7 19.5 82 2.0 ESE 13 15 7 8 1018.8 1018.7 0.0
28/07:30pm 23.1 24.1 19.5 80 2.3 ESE 13 17 7 9 1018.3 1018.2 0.0
28/07:00pm 23.2 23.7 19.2 78 2.5 ESE 15 19 8 10 1018.8 1018.7 0.0
28/06:30pm 23.4 23.6 19.3 78 2.6 ESE 17 19 9 10 1018.6 1018.5 0.0
28/06:00pm 23.5 23.8 19.6 79 2.5 ESE 17 19 9 10 1018.3 1018.2 0.0
28/05:30pm 23.6 23.4 19.3 77 2.7 ESE 19 22 10 12 1018.0 1017.9 0.0
28/05:00pm 23.8 23.1 19.5 77 2.8 ESE 22 26 12 14 1017.7 1017.6 0.0
28/04:30pm 24.1 24.3 20.2 79 2.5 ESE 19 24 10 13 1017.4 1017.3 0.0
28/04:00pm 24.5 24.4 19.6 74 3.1 E 19 22 10 12 1017.5 1017.4 0.0
28/03:30pm 24.8 24.8 19.8 74 3.2 E 19 26 10 14 1017.5 1017.4 0.0
28/03:00pm 25.5 24.7 19.2 68 4.0 ESE 22 26 12 14 1017.6 1017.5 0.0
28/02:30pm 25.0 23.6 18.9 69 3.9 ESE 24 28 13 15 1017.8 1017.7 0.0
28/02:00pm 25.5 24.4 19.4 69 3.9 SE 24 30 13 16 1017.9 1017.8 0.0
28/01:30pm 25.5 24.6 19.9 71 3.6 SE 24 28 13 15 1018.1 1018.0 0.0
28/01:00pm 25.2 24.0 19.3 70 3.8 ESE 24 28 13 15 1018.3 1018.2 0.0
28/12:30pm 25.3 23.5 18.7 67 4.2 SE 26 28 14 15 1018.7 1018.6 0.0
28/12:00pm 26.1 25.0 20.2 70 3.8 SE 26 30 14 16 1019.2 1019.1 0.0
28/11:30am 25.5 23.8 18.9 67 4.2 SSE 26 32 14 17 1019.7 1019.6 0.0
28/11:00am 25.6 23.7 19.3 68 4.0 SSE 28 32 15 17 1019.9 1019.8 0.0
28/10:30am 24.5 22.5 18.2 68 4.0 SSE 26 32 14 17 1019.8 1019.7 0.0
28/10:00am 24.6 22.7 19.4 73 3.3 SSE 28 30 15 16 1020.2 1020.1 0.0
28/09:30am 23.4 20.6 17.4 69 3.7 SSE 28 32 15 17 1020.5 1020.4 0.0
28/09:00am 23.2 21.2 17.4 70 3.6 S 24 32 13 17 1020.4 1020.3 0.0
28/08:30am 22.1 20.7 16.6 71 3.3 SSW 19 30 10 16 1020.1 1020.0 0.0
28/08:00am 22.2 21.4 17.1 73 3.1 SSW 17 22 9 12 1020.1 1020.0 0.0
28/07:30am 21.0 20.3 16.4 75 2.8 SSW 15 22 8 12 1019.9 1019.8 0.0
28/07:00am 19.9 18.7 16.0 78 2.3 SSW 17 22 9 12 1019.5 1019.4 0.0
28/06:30am 19.5 18.3 16.0 80 2.1 SSW 17 26 9 14 1019.4 1019.3 0.0
28/06:00am 19.3 18.8 15.8 80 2.1 SSW 13 22 7 12 1019.3 1019.2 0.0
28/05:30am 19.0 18.5 16.0 83 1.8 SSW 13 17 7 9 1019.3 1019.2 0.0
28/05:00am 19.1 17.8 15.8 81 2.0 SSW 17 24 9 13 1019.1 1019.0 0.0
28/04:30am 19.2 17.5 15.7 80 2.1 SSW 19 24 10 13 1018.7 1018.6 0.0
28/04:00am 19.5 17.8 15.8 79 2.2 SSW 19 28 10 15 1018.7 1018.6 0.0
28/03:30am 20.0 18.4 16.0 78 2.4 SSW 19 26 10 14 1018.7 1018.6 0.0
28/03:00am 20.0 18.8 16.0 78 2.4 SSW 17 22 9 12 1018.8 1018.7 0.0
28/02:30am 20.1 18.8 15.9 77 2.5 SSW 17 22 9 12 1018.8 1018.7 0.0
28/02:00am 20.4 18.8 16.0 76 2.6 SSW 19 28 10 15 1019.3 1019.2 0.0
28/01:30am 20.6 18.4 16.0 75 2.8 S 22 32 12 17 1019.6 1019.5 0.0
28/01:00am 20.7 17.3 15.9 74 2.9 S 28 39 15 21 1019.6 1019.5 0.0
28/12:30am 21.1 17.1 16.1 73 3.0 S 32 37 17 20 1019.6 1019.5 0.0
28/12:00am 21.4 18.5 16.1 72 3.2 S 26 32 14 17 1019.9 1019.8 0.0
 
Date/Time
EST
Temp
°C
App
Temp
°C
Dew
Point
°C
Rel
Hum
%
Delta-T
°C
Wind Press
QNH
hPa
Press
MSL
hPa
Rain since
9am
mm
Dir  Spd
km/h
Gust
km/h
Spd
kts
Gust
kts
27/11:30pm 21.2 19.5 16.2 73 3.0 S 20 28 11 15 1020.2 1020.1 0.0
27/11:00pm 20.9 18.7 16.9 78 2.4 S 24 30 13 16 1020.5 1020.4 0.0
27/10:30pm 21.8 17.9 16.5 72 3.2 S 32 37 17 20 1020.8 1020.7 0.0
27/10:00pm 21.6 18.1 16.6 73 3.0 S 30 33 16 18 1020.8 1020.7 0.0
27/09:30pm 21.6 18.1 16.6 73 3.0 S 30 35 16 19 1020.8 1020.7 0.0
27/09:00pm 21.8 18.4 16.7 73 3.1 S 30 35 16 19 1020.8 1020.7 0.0
27/08:30pm 21.8 18.5 17.0 74 2.9 S 30 35 16 19 1020.8 1020.7 0.0
27/08:00pm 21.6 18.8 17.2 76 2.7 S 28 32 15 17 1020.9 1020.8 0.0
27/07:30pm 21.7 18.0 17.5 77 2.6 SSE 33 39 18 21 1020.7 1020.6 0.0
27/07:00pm 21.5 15.6 17.1 76 2.7 S 44 54 24 29 1020.5 1020.4 0.0
27/06:30pm 21.6 16.6 17.0 75 2.8 S 39 48 21 26 1020.3 1020.2 0.0
27/06:00pm 21.5 14.9 17.3 77 2.6 SSE 48 56 26 30 1020.2 1020.1 0.0
27/05:30pm 21.5 16.3 17.5 78 2.5 SSE 41 48 22 26 1020.1 1020.0 0.0
27/05:00pm 21.8 17.1 17.8 78 2.5 S 39 48 21 26 1019.7 1019.6 0.0
27/04:30pm 22.4 17.1 18.2 77 2.6 S 43 52 23 28 1019.7 1019.6 0.0
27/04:00pm 23.0 17.7 18.1 74 3.1 SSE 43 50 23 27 1019.6 1019.5 0.0
27/03:30pm 23.4 19.5 18.7 75 3.0 S 37 48 20 26 1019.5 1019.4 0.0
27/03:00pm 23.1 18.9 18.8 77 2.7 SSE 39 50 21 27 1019.5 1019.4 0.0
27/02:30pm 23.9 19.1 19.2 75 3.0 SSE 43 50 23 27 1019.6 1019.5 0.0
27/02:00pm 24.2 20.1 19.1 73 3.2 SSE 39 43 21 23 1019.6 1019.5 0.0
27/01:30pm 24.6 20.5 19.2 72 3.5 SSE 39 46 21 25 1019.5 1019.4 0.0
27/01:00pm 25.1 21.7 20.6 76 2.9 SE 39 43 21 23 1019.8 1019.7 0.0
27/12:30pm 24.8 22.0 19.4 72 3.5 SE 33 37 18 20 1020.1 1020.0 0.0
27/12:00pm 24.1 23.9 20.6 81 2.3 ESE 22 28 12 15 1020.5 1020.4 0.0
27/11:30am 23.4 22.8 19.8 80 2.3 E 22 28 12 15 1020.8 1020.7 0.0
27/11:00am 22.8 21.3 19.4 81 2.2 E 26 32 14 17 1021.0 1020.9 0.0
27/10:30am 25.0 23.4 19.1 70 3.8 SSE 26 30 14 16 1021.2 1021.1 0.0
27/10:00am 24.5 24.1 18.0 67 4.1 S 17 20 9 11 1021.3 1021.2 0.0
27/09:30am 24.1 23.4 18.3 70 3.7 S 19 24 10 13 1021.4 1021.3 0.0
27/09:00am 23.8 24.6 19.1 75 3.0 S 13 19 7 10 1021.6 1021.5 7.6
27/08:30am 21.7 21.5 18.5 82 2.0 S 17 22 9 12 1021.4 1021.3 7.6
27/08:00am 21.2 20.2 17.6 80 2.2 S 19 26 10 14 1021.1 1021.0 7.6
27/07:30am 21.9 20.5 17.9 78 2.5 S 22 28 12 15 1020.7 1020.6 7.6
27/07:00am 20.8 18.6 17.8 83 1.8 S 26 30 14 16 1020.4 1020.3 7.6
27/06:30am 20.5 19.7 18.1 86 1.5 S 19 26 10 14 1020.3 1020.2 7.6
27/06:00am 20.4 19.4 18.0 86 1.5 S 20 28 11 15 1020.1 1020.0 7.6
27/05:30am 20.3 19.4 18.1 87 1.4 S 20 28 11 15 1019.8 1019.7 7.6
27/05:00am 19.8 19.5 18.3 91 0.9 SSW 17 28 9 15 1019.6 1019.5 7.6
27/04:30am 20.1 19.9 18.6 91 0.9 SSW 17 28 9 15 1019.3 1019.2 7.6
27/04:00am 20.2 21.3 18.9 92 0.8 SSW 11 17 6 9 1019.2 1019.1 7.6
27/03:30am 20.4 20.1 18.3 88 1.3 S 17 26 9 14 1018.9 1018.8 7.6
27/03:00am 20.6 19.0 18.4 87 1.4 S 24 28 13 15 1018.9 1018.8 7.6
27/02:30am 20.8 17.6 18.7 88 1.3 S 33 39 18 21 1019.1 1019.0 7.6
27/02:00am 20.1 17.2 18.8 92 0.8 S 32 39 17 21 1019.4 1019.3 7.6
27/01:30am 20.2 17.6 19.5 96 0.4 S 32 39 17 21 1019.6 1019.5 7.6
27/01:00am 20.6 17.6 19.9 96 0.4 S 35 48 19 26 1019.7 1019.6 7.4
27/12:53am 20.8 18.2 20.0 95 0.5 S 33 44 18 24 1019.9 1019.8 7.2
27/12:30am 23.5 23.3 18.6 74 3.1 ESE 17 22 9 12 1019.8 1019.7 0.0
27/12:00am 23.2 23.3 19.2 78 2.5 E 17 19 9 10 1019.9 1019.8 0.0
 
Date/Time
EST
Temp
°C
App
Temp
°C
Dew
Point
°C
Rel
Hum
%
Delta-T
°C
Wind Press
QNH
hPa
Press
MSL
hPa
Rain since
9am
mm
Dir  Spd
km/h
Gust
km/h
Spd
kts
Gust
kts
26/11:30pm 23.5 22.9 18.8 75 3.0 E 20 26 11 14 1019.9 1019.8 0.0
26/11:00pm 23.6 22.6 18.0 71 3.5 ESE 20 24 11 13 1020.1 1020.0 0.0
26/10:30pm 23.5 22.2 18.2 72 3.3 ESE 22 26 12 14 1020.2 1020.1 0.0
26/10:00pm 23.7 22.7 18.8 74 3.1 ESE 22 28 12 15 1020.4 1020.3 0.0
26/09:30pm 23.8 21.8 18.4 72 3.4 ESE 26 28 14 15 1020.5 1020.4 0.0
26/09:00pm 24.0 21.9 18.9 73 3.2 ESE 28 32 15 17 1020.4 1020.3 0.0
26/08:30pm 24.0 22.3 18.0 69 3.8 ESE 24 28 13 15 1020.2 1020.1 0.0
26/08:00pm 24.1 22.3 17.8 68 3.9 SE 24 28 13 15 1020.0 1019.9 0.0

Other formats

Comma delimited format used in spreadsheet applications
http://www.bom.gov.au/fwo/IDQ60801/IDQ60801.95591.axf

JavaScript Object Notation format (JSON) in row-major order
http://www.bom.gov.au/fwo/IDQ60801/IDQ60801.95591.json

Data quality

Most of these data are generated automatically and are frequently updated. Quality checks on data are not normally performed. It is possible for incorrect values to appear. Refer to information at About Latest Weather Observations and please check the disclaimer before using these data.